N377QS KCRP-KADS
Flight info
| Callsign | N377QS |
|---|---|
| Flight time | 1h 9m |
| Altitude | 31000 |
| Route | WORRY V13 PSX LOA YEAGR4 |
| Aircraft | E55P/M-SBDFGHJ2RWY/LB2 |
Departure
| Time | 2026-04-26 15:37 |
|---|---|
| Airport | Corpus Christi International Airport (KCRP) |
Arrival
| Time | 2026-04-26 16:46 |
|---|---|
| Airport | Addison Airport (KADS) |
| Time | Latitude | Longitude | Altitude | Speed | Heading |
|---|---|---|---|---|---|
| 2026-04-26 15:21 | 27.77659 | -97.50548 | 41 ft | 0 kts | 137° |
| 2026-04-26 15:31 | 27.77656 | -97.50545 | 41 ft | 1 kts | 137° |
| 2026-04-26 15:31 | 27.77638 | -97.50532 | 40 ft | 4 kts | 175° |
| 2026-04-26 15:32 | 27.77581 | -97.50526 | 40 ft | 7 kts | 173° |
| 2026-04-26 15:32 | 27.77509 | -97.50582 | 40 ft | 9 kts | 259° |
| 2026-04-26 15:32 | 27.77542 | -97.50642 | 41 ft | 9 kts | 314° |
| 2026-04-26 15:33 | 27.77589 | -97.50691 | 42 ft | 9 kts | 317° |
| 2026-04-26 15:33 | 27.77635 | -97.50742 | 42 ft | 9 kts | 315° |
| 2026-04-26 15:33 | 27.77685 | -97.50796 | 43 ft | 10 kts | 316° |
| 2026-04-26 15:33 | 27.77745 | -97.50861 | 43 ft | 13 kts | 316° |
| 2026-04-26 15:34 | 27.77816 | -97.50938 | 43 ft | 14 kts | 316° |
| 2026-04-26 15:34 | 27.77834 | -97.51024 | 43 ft | 12 kts | 235° |
| 2026-04-26 15:34 | 27.77775 | -97.51091 | 43 ft | 12 kts | 233° |
| 2026-04-26 15:34 | 27.77795 | -97.51172 | 43 ft | 12 kts | 317° |
| 2026-04-26 15:35 | 27.77861 | -97.51244 | 42 ft | 13 kts | 319° |
| 2026-04-26 15:35 | 27.77931 | -97.51321 | 42 ft | 14 kts | 314° |
| 2026-04-26 15:35 | 27.77989 | -97.51382 | 43 ft | 9 kts | 318° |
| 2026-04-26 15:35 | 27.77986 | -97.51438 | 43 ft | 8 kts | 220° |
| 2026-04-26 15:36 | 27.77948 | -97.51478 | 43 ft | 5 kts | 225° |
| 2026-04-26 15:36 | 27.77922 | -97.51508 | 43 ft | 5 kts | 226° |
| 2026-04-26 15:36 | 27.77891 | -97.51532 | 43 ft | 5 kts | 175° |
| 2026-04-26 15:36 | 27.77855 | -97.51502 | 43 ft | 10 kts | 136° |
| 2026-04-26 15:37 | 27.77592 | -97.51218 | 43 ft | 107 kts | 136° |
| 2026-04-26 15:37 | 27.76864 | -97.50410 | 328 ft | 172 kts | 135° |
| 2026-04-26 15:37 | 27.75921 | -97.49326 | 1120 ft | 216 kts | 134° |
| 2026-04-26 15:37 | 27.74831 | -97.48048 | 2183 ft | 246 kts | 135° |
| 2026-04-26 15:38 | 27.73872 | -97.46637 | 4167 ft | 234 kts | 115° |
| 2026-04-26 15:38 | 27.73759 | -97.44814 | 5436 ft | 256 kts | 77° |
| 2026-04-26 15:38 | 27.74744 | -97.43137 | 6681 ft | 276 kts | 38° |
| 2026-04-26 15:38 | 27.76494 | -97.42385 | 8089 ft | 281 kts | 5° |
| 2026-04-26 15:39 | 27.78390 | -97.42047 | 9510 ft | 282 kts | 12° |
| 2026-04-26 15:39 | 27.80280 | -97.41557 | 10846 ft | 285 kts | 12° |
| 2026-04-26 15:39 | 27.82254 | -97.41029 | 11596 ft | 308 kts | 12° |
| 2026-04-26 15:39 | 27.82959 | -97.40836 | 11765 ft | 313 kts | 12° |
| 2026-04-26 15:40 | 27.86615 | -97.39831 | 12788 ft | 328 kts | 12° |
| 2026-04-26 15:40 | 27.88823 | -97.39207 | 13688 ft | 327 kts | 12° |
| 2026-04-26 15:40 | 27.91000 | -97.38579 | 14458 ft | 329 kts | 12° |
| 2026-04-26 15:40 | 27.93230 | -97.37922 | 15121 ft | 335 kts | 12° |
| 2026-04-26 15:41 | 27.95476 | -97.37071 | 15763 ft | 345 kts | 24° |
| 2026-04-26 15:41 | 27.97532 | -97.35674 | 16430 ft | 349 kts | 28° |
| 2026-04-26 15:41 | 27.99608 | -97.34155 | 17073 ft | 354 kts | 30° |
| 2026-04-26 15:41 | 28.01646 | -97.32636 | 17696 ft | 358 kts | 30° |
| 2026-04-26 15:42 | 28.03759 | -97.31052 | 18329 ft | 362 kts | 29° |
| 2026-04-26 15:42 | 28.05847 | -97.29490 | 18918 ft | 367 kts | 29° |
| 2026-04-26 15:42 | 28.08003 | -97.27872 | 19497 ft | 372 kts | 29° |
| 2026-04-26 15:42 | 28.10161 | -97.26253 | 20059 ft | 376 kts | 30° |
| 2026-04-26 15:43 | 28.12310 | -97.24504 | 20609 ft | 384 kts | 37° |
| 2026-04-26 15:43 | 28.14367 | -97.22571 | 21186 ft | 385 kts | 34° |
| 2026-04-26 15:43 | 28.18513 | -97.18762 | 22536 ft | 385 kts | 34° |
| 2026-04-26 15:44 | 28.20585 | -97.16859 | 23201 ft | 385 kts | 34° |
| 2026-04-26 15:44 | 28.24737 | -97.13045 | 24537 ft | 384 kts | 33° |
| 2026-04-26 15:44 | 28.26814 | -97.11134 | 25176 ft | 383 kts | 33° |
| 2026-04-26 15:45 | 28.30930 | -97.07347 | 26411 ft | 383 kts | 33° |
| 2026-04-26 15:45 | 28.32990 | -97.05450 | 27030 ft | 382 kts | 32° |
| 2026-04-26 15:46 | 28.37089 | -97.01672 | 28215 ft | 381 kts | 32° |
| 2026-04-26 15:46 | 28.39160 | -96.99760 | 28796 ft | 381 kts | 31° |
| 2026-04-26 15:46 | 28.41217 | -96.97865 | 29366 ft | 380 kts | 31° |
| 2026-04-26 15:46 | 28.41881 | -96.97252 | 29568 ft | 380 kts | 31° |
| 2026-04-26 15:47 | 28.45215 | -96.93973 | 30470 ft | 389 kts | 43° |
| 2026-04-26 15:47 | 28.48007 | -96.88479 | 30871 ft | 417 kts | 54° |
| 2026-04-26 15:47 | 28.49440 | -96.85568 | 30878 ft | 430 kts | 54° |
| 2026-04-26 15:48 | 28.50923 | -96.82561 | 30865 ft | 438 kts | 54° |
| 2026-04-26 15:48 | 28.53945 | -96.76441 | 30868 ft | 451 kts | 54° |
| 2026-04-26 15:49 | 28.57060 | -96.70128 | 30871 ft | 461 kts | 55° |
| 2026-04-26 15:49 | 28.60203 | -96.63749 | 30876 ft | 470 kts | 55° |
| 2026-04-26 15:50 | 28.63419 | -96.57210 | 30874 ft | 477 kts | 55° |
| 2026-04-26 15:50 | 28.66684 | -96.50560 | 30872 ft | 483 kts | 55° |
| 2026-04-26 15:51 | 28.69961 | -96.43885 | 30879 ft | 487 kts | 55° |
| 2026-04-26 15:51 | 28.73261 | -96.37142 | 30881 ft | 492 kts | 55° |
| 2026-04-26 15:51 | 28.75077 | -96.33835 | 30854 ft | 484 kts | 44° |
| 2026-04-26 15:52 | 28.77566 | -96.31436 | 30874 ft | 464 kts | 23° |
| 2026-04-26 15:52 | 28.80479 | -96.30111 | 30869 ft | 445 kts | 4° |
| 2026-04-26 15:52 | 28.83516 | -96.29649 | 30879 ft | 441 kts | 360° |
| 2026-04-26 15:53 | 28.89630 | -96.28774 | 30870 ft | 443 kts | 359° |
| 2026-04-26 15:53 | 28.95744 | -96.27915 | 30865 ft | 444 kts | 359° |
| 2026-04-26 15:54 | 29.01890 | -96.27051 | 30861 ft | 446 kts | 359° |
| 2026-04-26 15:54 | 29.08088 | -96.26179 | 30859 ft | 447 kts | 360° |
| 2026-04-26 15:55 | 29.14244 | -96.25310 | 30868 ft | 448 kts | 359° |
| 2026-04-26 15:55 | 29.20449 | -96.24437 | 30873 ft | 448 kts | 359° |
| 2026-04-26 15:56 | 29.26632 | -96.23563 | 30873 ft | 449 kts | 360° |
| 2026-04-26 15:56 | 29.32845 | -96.22684 | 30874 ft | 449 kts | 360° |
| 2026-04-26 15:57 | 29.39029 | -96.21808 | 30870 ft | 450 kts | 360° |
| 2026-04-26 15:57 | 29.45271 | -96.20921 | 30869 ft | 450 kts | 360° |
| 2026-04-26 15:58 | 29.51469 | -96.20040 | 30869 ft | 450 kts | 359° |
| 2026-04-26 15:58 | 29.57712 | -96.19154 | 30872 ft | 451 kts | 359° |
| 2026-04-26 15:59 | 29.63925 | -96.18269 | 30872 ft | 451 kts | 359° |
| 2026-04-26 15:59 | 29.70159 | -96.17381 | 30877 ft | 451 kts | 360° |
| 2026-04-26 16:00 | 29.76399 | -96.16490 | 30879 ft | 451 kts | 360° |
| 2026-04-26 16:00 | 29.82643 | -96.15597 | 30887 ft | 452 kts | 359° |
| 2026-04-26 16:01 | 29.88889 | -96.14706 | 30884 ft | 452 kts | 359° |
| 2026-04-26 16:01 | 29.95088 | -96.13818 | 30884 ft | 452 kts | 359° |
| 2026-04-26 16:02 | 30.01355 | -96.12917 | 30884 ft | 453 kts | 359° |
| 2026-04-26 16:02 | 30.07599 | -96.12022 | 30888 ft | 453 kts | 359° |
| 2026-04-26 16:03 | 30.13832 | -96.11124 | 30893 ft | 453 kts | 359° |
| 2026-04-26 16:03 | 30.20089 | -96.10226 | 30889 ft | 453 kts | 359° |
| 2026-04-26 16:04 | 30.26357 | -96.09320 | 30887 ft | 453 kts | 359° |
| 2026-04-26 16:04 | 30.32595 | -96.08419 | 30890 ft | 447 kts | 359° |
| 2026-04-26 16:05 | 30.38725 | -96.07533 | 30894 ft | 439 kts | 359° |
| 2026-04-26 16:05 | 30.44774 | -96.06660 | 30895 ft | 434 kts | 359° |
| 2026-04-26 16:06 | 30.50738 | -96.05794 | 30894 ft | 430 kts | 359° |
| 2026-04-26 16:06 | 30.56640 | -96.04940 | 30896 ft | 426 kts | 359° |
| 2026-04-26 16:07 | 30.62489 | -96.04090 | 30897 ft | 425 kts | 359° |
| 2026-04-26 16:07 | 30.68380 | -96.03233 | 30894 ft | 425 kts | 359° |
| 2026-04-26 16:08 | 30.74247 | -96.02380 | 30899 ft | 425 kts | 359° |
| 2026-04-26 16:08 | 30.80108 | -96.01526 | 30896 ft | 425 kts | 358° |
| 2026-04-26 16:09 | 30.85974 | -96.00671 | 30893 ft | 425 kts | 359° |
| 2026-04-26 16:09 | 30.91872 | -95.99810 | 30885 ft | 426 kts | 358° |
| 2026-04-26 16:10 | 30.97755 | -95.98947 | 30879 ft | 428 kts | 359° |
| 2026-04-26 16:10 | 31.03647 | -95.98086 | 30876 ft | 429 kts | 358° |
| 2026-04-26 16:11 | 31.09600 | -95.97212 | 30878 ft | 429 kts | 358° |
| 2026-04-26 16:11 | 31.15347 | -95.97482 | 30891 ft | 408 kts | 340° |
| 2026-04-26 16:12 | 31.20925 | -95.98782 | 30881 ft | 410 kts | 341° |
| 2026-04-26 16:12 | 31.29324 | -96.00743 | 30879 ft | 411 kts | 341° |
| 2026-04-26 16:13 | 31.34931 | -96.02054 | 30879 ft | 411 kts | 341° |
| 2026-04-26 16:13 | 31.40551 | -96.03371 | 30883 ft | 411 kts | 341° |
| 2026-04-26 16:14 | 31.46165 | -96.04686 | 30858 ft | 412 kts | 340° |
| 2026-04-26 16:14 | 31.51811 | -96.06015 | 30221 ft | 413 kts | 341° |
| 2026-04-26 16:15 | 31.54591 | -96.06662 | 29771 ft | 404 kts | 341° |
| 2026-04-26 16:15 | 31.57311 | -96.07298 | 29291 ft | 388 kts | 341° |
| 2026-04-26 16:15 | 31.59892 | -96.07907 | 28822 ft | 375 kts | 340° |
| 2026-04-26 16:16 | 31.64879 | -96.09081 | 27874 ft | 355 kts | 340° |
| 2026-04-26 16:16 | 31.67259 | -96.09645 | 27403 ft | 347 kts | 340° |
| 2026-04-26 16:16 | 31.69607 | -96.10199 | 26933 ft | 340 kts | 340° |
| 2026-04-26 16:16 | 31.71909 | -96.10747 | 26464 ft | 334 kts | 341° |
| 2026-04-26 16:17 | 31.74171 | -96.11279 | 25996 ft | 329 kts | 341° |
| 2026-04-26 16:17 | 31.76385 | -96.11802 | 25536 ft | 324 kts | 341° |
| 2026-04-26 16:17 | 31.78575 | -96.12319 | 25072 ft | 320 kts | 341° |
| 2026-04-26 16:17 | 31.80744 | -96.12833 | 24612 ft | 317 kts | 341° |
| 2026-04-26 16:18 | 31.82899 | -96.13344 | 24142 ft | 314 kts | 342° |
| 2026-04-26 16:18 | 31.87110 | -96.14339 | 23211 ft | 308 kts | 342° |
| 2026-04-26 16:19 | 31.91292 | -96.15326 | 22294 ft | 304 kts | 342° |
| 2026-04-26 16:19 | 31.93355 | -96.15816 | 21841 ft | 302 kts | 342° |
| 2026-04-26 16:19 | 31.96770 | -96.16627 | 21086 ft | 299 kts | 342° |
| 2026-04-26 16:20 | 31.99490 | -96.17271 | 20485 ft | 297 kts | 342° |
| 2026-04-26 16:20 | 32.03512 | -96.18227 | 19585 ft | 293 kts | 342° |
| 2026-04-26 16:20 | 32.05506 | -96.18702 | 19135 ft | 292 kts | 342° |
| 2026-04-26 16:21 | 32.07474 | -96.19167 | 18689 ft | 291 kts | 342° |
| 2026-04-26 16:21 | 32.09444 | -96.19638 | 18247 ft | 289 kts | 342° |
| 2026-04-26 16:21 | 32.11424 | -96.20110 | 17802 ft | 288 kts | 342° |
| 2026-04-26 16:21 | 32.13366 | -96.20569 | 17360 ft | 287 kts | 342° |
| 2026-04-26 16:22 | 32.15346 | -96.21043 | 16908 ft | 286 kts | 342° |
| 2026-04-26 16:22 | 32.17278 | -96.21504 | 16459 ft | 285 kts | 342° |
| 2026-04-26 16:22 | 32.19223 | -96.21997 | 16018 ft | 283 kts | 340° |
| 2026-04-26 16:22 | 32.21104 | -96.22573 | 15576 ft | 282 kts | 340° |
| 2026-04-26 16:23 | 32.23015 | -96.23150 | 15134 ft | 281 kts | 340° |
| 2026-04-26 16:23 | 32.24886 | -96.23711 | 14693 ft | 280 kts | 340° |
| 2026-04-26 16:23 | 32.26774 | -96.24281 | 14252 ft | 279 kts | 341° |
| 2026-04-26 16:23 | 32.28641 | -96.24846 | 13843 ft | 276 kts | 341° |
| 2026-04-26 16:24 | 32.30521 | -96.25410 | 13558 ft | 278 kts | 341° |
| 2026-04-26 16:24 | 32.32401 | -96.25978 | 13266 ft | 280 kts | 341° |
| 2026-04-26 16:24 | 32.34291 | -96.26547 | 12970 ft | 282 kts | 341° |
| 2026-04-26 16:24 | 32.36217 | -96.27129 | 12674 ft | 284 kts | 341° |
| 2026-04-26 16:25 | 32.38136 | -96.27705 | 12383 ft | 285 kts | 341° |
| 2026-04-26 16:25 | 32.40046 | -96.28284 | 12094 ft | 286 kts | 341° |
| 2026-04-26 16:25 | 32.41979 | -96.28869 | 11805 ft | 286 kts | 341° |
| 2026-04-26 16:25 | 32.43897 | -96.29447 | 11513 ft | 287 kts | 342° |
| 2026-04-26 16:26 | 32.45851 | -96.30040 | 11217 ft | 287 kts | 342° |
| 2026-04-26 16:26 | 32.47125 | -96.30423 | 11026 ft | 287 kts | 342° |
| 2026-04-26 16:26 | 32.49700 | -96.31202 | 10636 ft | 287 kts | 342° |
| 2026-04-26 16:26 | 32.51646 | -96.31791 | 10345 ft | 286 kts | 342° |
| 2026-04-26 16:27 | 32.53560 | -96.32372 | 10057 ft | 283 kts | 342° |
| 2026-04-26 16:27 | 32.55452 | -96.32943 | 9769 ft | 281 kts | 342° |
| 2026-04-26 16:27 | 32.57325 | -96.33610 | 9458 ft | 277 kts | 330° |
| 2026-04-26 16:27 | 32.58826 | -96.34933 | 9120 ft | 267 kts | 317° |
| 2026-04-26 16:28 | 32.60247 | -96.36301 | 8756 ft | 262 kts | 317° |
| 2026-04-26 16:28 | 32.61660 | -96.37685 | 8457 ft | 258 kts | 317° |
| 2026-04-26 16:28 | 32.63015 | -96.39050 | 8165 ft | 255 kts | 317° |
| 2026-04-26 16:28 | 32.64349 | -96.40431 | 7866 ft | 252 kts | 317° |
| 2026-04-26 16:29 | 32.65653 | -96.41818 | 7562 ft | 249 kts | 317° |
| 2026-04-26 16:29 | 32.66909 | -96.43185 | 7193 ft | 246 kts | 317° |
| 2026-04-26 16:29 | 32.68161 | -96.44544 | 6816 ft | 244 kts | 317° |
| 2026-04-26 16:29 | 32.69408 | -96.45899 | 6438 ft | 242 kts | 317° |
| 2026-04-26 16:30 | 32.70655 | -96.47259 | 6059 ft | 241 kts | 317° |
| 2026-04-26 16:30 | 32.71880 | -96.48583 | 5634 ft | 240 kts | 317° |
| 2026-04-26 16:30 | 32.73141 | -96.49906 | 5207 ft | 240 kts | 317° |
| 2026-04-26 16:30 | 32.74408 | -96.51192 | 4796 ft | 240 kts | 317° |
| 2026-04-26 16:31 | 32.75686 | -96.52451 | 4396 ft | 241 kts | 317° |
| 2026-04-26 16:31 | 32.77011 | -96.53675 | 4077 ft | 241 kts | 324° |
| 2026-04-26 16:31 | 32.78425 | -96.54683 | 4021 ft | 233 kts | 326° |
| 2026-04-26 16:31 | 32.79826 | -96.55673 | 4017 ft | 232 kts | 327° |
| 2026-04-26 16:32 | 32.81213 | -96.56644 | 4017 ft | 231 kts | 327° |
| 2026-04-26 16:32 | 32.82124 | -96.57282 | 4017 ft | 230 kts | 327° |
| 2026-04-26 16:32 | 32.83970 | -96.58570 | 4018 ft | 230 kts | 327° |
| 2026-04-26 16:32 | 32.85346 | -96.59531 | 4017 ft | 229 kts | 327° |
| 2026-04-26 16:33 | 32.86732 | -96.60500 | 4017 ft | 229 kts | 327° |
| 2026-04-26 16:33 | 32.88105 | -96.61463 | 4017 ft | 229 kts | 327° |
| 2026-04-26 16:33 | 32.89472 | -96.62419 | 4017 ft | 229 kts | 327° |
| 2026-04-26 16:33 | 32.90847 | -96.63379 | 4016 ft | 228 kts | 327° |
| 2026-04-26 16:34 | 32.92233 | -96.64350 | 4015 ft | 228 kts | 327° |
| 2026-04-26 16:34 | 32.93605 | -96.65309 | 4014 ft | 228 kts | 326° |
| 2026-04-26 16:34 | 32.94993 | -96.66284 | 3920 ft | 233 kts | 326° |
| 2026-04-26 16:34 | 32.96397 | -96.67268 | 3834 ft | 236 kts | 326° |
| 2026-04-26 16:35 | 32.97819 | -96.68265 | 3744 ft | 237 kts | 326° |
| 2026-04-26 16:35 | 32.99239 | -96.69260 | 3674 ft | 238 kts | 326° |
| 2026-04-26 16:35 | 33.00671 | -96.70267 | 3599 ft | 239 kts | 326° |
| 2026-04-26 16:35 | 33.02094 | -96.71265 | 3525 ft | 239 kts | 326° |
| 2026-04-26 16:36 | 33.03537 | -96.72280 | 3449 ft | 239 kts | 326° |
| 2026-04-26 16:36 | 33.04961 | -96.73280 | 3354 ft | 237 kts | 327° |
| 2026-04-26 16:36 | 33.06376 | -96.74272 | 3257 ft | 235 kts | 327° |
| 2026-04-26 16:36 | 33.07782 | -96.75262 | 3157 ft | 231 kts | 326° |
| 2026-04-26 16:37 | 33.09159 | -96.76230 | 3057 ft | 228 kts | 326° |
| 2026-04-26 16:37 | 33.10500 | -96.77173 | 2955 ft | 223 kts | 327° |
| 2026-04-26 16:37 | 33.11831 | -96.78110 | 2844 ft | 217 kts | 327° |
| 2026-04-26 16:37 | 33.12689 | -96.78713 | 2772 ft | 214 kts | 326° |
| 2026-04-26 16:38 | 33.14354 | -96.79887 | 2732 ft | 200 kts | 326° |
| 2026-04-26 16:38 | 33.15540 | -96.80720 | 2619 ft | 192 kts | 326° |
| 2026-04-26 16:38 | 33.16639 | -96.81575 | 2504 ft | 184 kts | 310° |
| 2026-04-26 16:38 | 33.17140 | -96.82825 | 2486 ft | 158 kts | 265° |
| 2026-04-26 16:39 | 33.16907 | -96.84015 | 2495 ft | 143 kts | 239° |
| 2026-04-26 16:39 | 33.16568 | -96.85109 | 2504 ft | 139 kts | 240° |
| 2026-04-26 16:39 | 33.16235 | -96.86181 | 2491 ft | 137 kts | 240° |
| 2026-04-26 16:39 | 33.15905 | -96.87241 | 2487 ft | 135 kts | 240° |
| 2026-04-26 16:40 | 33.15582 | -96.88285 | 2479 ft | 134 kts | 240° |
| 2026-04-26 16:40 | 33.15254 | -96.89345 | 2401 ft | 138 kts | 241° |
| 2026-04-26 16:40 | 33.14870 | -96.90387 | 2326 ft | 135 kts | 225° |
| 2026-04-26 16:40 | 33.14097 | -96.90885 | 2245 ft | 127 kts | 181° |
| 2026-04-26 16:41 | 33.13243 | -96.90664 | 2191 ft | 127 kts | 164° |
| 2026-04-26 16:41 | 33.12388 | -96.90365 | 2121 ft | 128 kts | 163° |
| 2026-04-26 16:41 | 33.11527 | -96.90024 | 2048 ft | 130 kts | 162° |
| 2026-04-26 16:41 | 33.10670 | -96.89671 | 1996 ft | 129 kts | 161° |
| 2026-04-26 16:42 | 33.09834 | -96.89314 | 1985 ft | 126 kts | 161° |
| 2026-04-26 16:42 | 33.09020 | -96.88963 | 1982 ft | 123 kts | 160° |
| 2026-04-26 16:42 | 33.08221 | -96.88618 | 1989 ft | 121 kts | 160° |
| 2026-04-26 16:42 | 33.07418 | -96.88268 | 1987 ft | 121 kts | 159° |
| 2026-04-26 16:43 | 33.06632 | -96.87926 | 1992 ft | 120 kts | 158° |
| 2026-04-26 16:43 | 33.05854 | -96.87585 | 2002 ft | 118 kts | 158° |
| 2026-04-26 16:43 | 33.05077 | -96.87241 | 1993 ft | 116 kts | 158° |
| 2026-04-26 16:43 | 33.04381 | -96.86936 | 1972 ft | 104 kts | 158° |
| 2026-04-26 16:44 | 33.03701 | -96.86637 | 1835 ft | 105 kts | 158° |
| 2026-04-26 16:44 | 33.03015 | -96.86332 | 1714 ft | 104 kts | 158° |
| 2026-04-26 16:44 | 33.02340 | -96.86038 | 1572 ft | 105 kts | 159° |
| 2026-04-26 16:44 | 33.01654 | -96.85747 | 1458 ft | 101 kts | 158° |
| 2026-04-26 16:45 | 33.00997 | -96.85456 | 1353 ft | 98 kts | 158° |
| 2026-04-26 16:45 | 33.00354 | -96.85175 | 1199 ft | 102 kts | 156° |
| 2026-04-26 16:45 | 32.99645 | -96.84847 | 1111 ft | 113 kts | 157° |
| 2026-04-26 16:45 | 32.98915 | -96.84544 | 964 ft | 110 kts | 159° |
| 2026-04-26 16:46 | 32.98199 | -96.84232 | 797 ft | 109 kts | 158° |
| 2026-04-26 16:46 | 32.97491 | -96.83923 | 653 ft | 105 kts | 158° |
| 2026-04-26 16:46 | 32.96875 | -96.83652 | 639 ft | 83 kts | 159° |
| 2026-04-26 16:46 | 32.96492 | -96.83482 | 643 ft | 41 kts | 159° |
| 2026-04-26 16:47 | 32.96248 | -96.83380 | 640 ft | 27 kts | 159° |
| 2026-04-26 16:47 | 32.96163 | -96.83315 | 639 ft | 8 kts | 87° |
| 2026-04-26 16:47 | 32.96171 | -96.83278 | 639 ft | 3 kts | 68° |
| 2026-04-26 16:47 | 32.96193 | -96.83254 | 638 ft | 5 kts | 357° |
| 2026-04-26 16:48 | 32.96233 | -96.83270 | 638 ft | 6 kts | 338° |
| 2026-04-26 16:48 | 32.96275 | -96.83289 | 639 ft | 6 kts | 339° |
| 2026-04-26 16:48 | 32.96320 | -96.83308 | 639 ft | 6 kts | 340° |
| 2026-04-26 16:48 | 32.96366 | -96.83328 | 640 ft | 7 kts | 341° |
| 2026-04-26 16:49 | 32.96417 | -96.83350 | 640 ft | 8 kts | 339° |
| 2026-04-26 16:49 | 32.96482 | -96.83379 | 641 ft | 11 kts | 340° |
| 2026-04-26 16:49 | 32.96568 | -96.83417 | 641 ft | 13 kts | 339° |
| 2026-04-26 16:49 | 32.96659 | -96.83457 | 642 ft | 14 kts | 339° |
| 2026-04-26 16:50 | 32.96756 | -96.83501 | 641 ft | 15 kts | 339° |
| 2026-04-26 16:50 | 32.96865 | -96.83549 | 639 ft | 17 kts | 338° |
| 2026-04-26 16:50 | 32.96976 | -96.83597 | 638 ft | 17 kts | 337° |
| 2026-04-26 16:50 | 32.97063 | -96.83635 | 637 ft | 9 kts | 346° |
| 2026-04-26 16:51 | 32.97097 | -96.83588 | 638 ft | 7 kts | 72° |
| 2026-04-26 16:51 | 32.97113 | -96.83536 | 639 ft | 6 kts | 70° |
| 2026-04-26 16:51 | 32.97134 | -96.83488 | 640 ft | 8 kts | 46° |
| 2026-04-26 16:51 | 32.97182 | -96.83431 | 640 ft | 11 kts | 46° |
| 2026-04-26 16:52 | 32.97242 | -96.83361 | 640 ft | 12 kts | 44° |
| 2026-04-26 16:52 | 32.97262 | -96.83338 | 640 ft | 12 kts | 44° |
| 2026-04-26 16:52 | 32.97364 | -96.83225 | 640 ft | 11 kts | 40° |
| 2026-04-26 16:52 | 32.97419 | -96.83176 | 641 ft | 8 kts | 359° |
| 2026-04-26 16:53 | 32.97467 | -96.83177 | 642 ft | 5 kts | 358° |
| 2026-04-26 16:53 | 32.97488 | -96.83191 | 643 ft | 3 kts | 237° |
| 2026-04-26 16:53 | 32.97482 | -96.83195 | 642 ft | 0 kts | 180° |